createdAt,value
2019-03-30T00:01:52.568Z,77.00
2019-03-30T00:04:21.032Z,77.50
2019-03-30T00:06:49.487Z,77.70
2019-03-30T00:09:17.975Z,78.30
2019-03-30T00:11:46.426Z,78.90
2019-03-30T00:14:14.873Z,79.30
2019-03-30T00:16:43.339Z,80.00
2019-03-30T00:19:11.789Z,80.00
2019-03-30T00:21:40.233Z,80.20
2019-03-30T00:24:08.794Z,81.20
2019-03-30T00:26:37.295Z,80.60
2019-03-30T00:29:05.743Z,80.00
2019-03-30T00:31:34.247Z,79.20
2019-03-30T00:34:02.690Z,79.20
2019-03-30T00:36:31.136Z,79.30
2019-03-30T00:39:01.208Z,79.40
2019-03-30T00:41:29.713Z,79.30
2019-03-30T00:43:58.220Z,79.20
2019-03-30T00:46:26.756Z,79.10
2019-03-30T00:48:55.200Z,79.30
2019-03-30T00:51:23.660Z,79.80
2019-03-30T00:53:52.136Z,80.30
2019-03-30T00:56:20.594Z,80.90
2019-03-30T00:58:49.036Z,81.30
2019-03-30T01:01:17.497Z,82.00
2019-03-30T01:03:46.012Z,82.10
2019-03-30T01:06:14.459Z,81.80
2019-03-30T01:08:42.923Z,81.50
2019-03-30T01:11:11.379Z,81.50
2019-03-30T01:13:39.833Z,81.00
2019-03-30T01:16:08.362Z,82.30
2019-03-30T01:18:36.857Z,81.30
2019-03-30T01:21:05.412Z,82.10
2019-03-30T01:23:33.867Z,81.90
2019-03-30T01:26:02.317Z,81.40
2019-03-30T01:28:30.792Z,80.90
2019-03-30T01:30:59.244Z,80.20
2019-03-30T01:33:27.702Z,79.60
2019-03-30T01:35:56.192Z,79.50
2019-03-30T01:38:24.645Z,80.60
2019-03-30T01:40:53.126Z,80.60
2019-03-30T01:43:21.581Z,80.90
2019-03-30T01:45:50.021Z,80.50
2019-03-30T01:48:18.493Z,80.60
2019-03-30T01:50:47.194Z,80.30
2019-03-30T01:53:15.772Z,80.90
2019-03-30T01:55:44.244Z,81.80
2019-03-30T01:58:12.703Z,81.00
2019-03-30T02:00:41.296Z,81.40
2019-03-30T02:03:09.756Z,82.00
2019-03-30T02:05:38.299Z,82.20
2019-03-30T02:08:06.744Z,82.10
2019-03-30T02:10:38.122Z,81.80
2019-03-30T02:13:06.644Z,81.50
2019-03-30T02:15:35.172Z,81.20
2019-03-30T02:18:03.661Z,81.90
2019-03-30T02:20:46.605Z,82.50
2019-03-30T02:23:15.145Z,82.40
2019-03-30T02:25:43.600Z,82.10
2019-03-30T02:28:12.679Z,82.80
2019-03-30T02:30:41.210Z,83.00
2019-03-30T02:33:09.745Z,83.20
2019-03-30T02:35:38.296Z,83.50
2019-03-30T02:38:06.808Z,83.20
2019-03-30T02:40:35.272Z,82.10
2019-03-30T02:43:03.799Z,83.20
2019-03-30T02:45:32.266Z,83.40
2019-03-30T02:48:00.717Z,83.30
2019-03-30T02:50:29.243Z,83.00
2019-03-30T02:52:57.692Z,83.20
2019-03-30T02:55:26.219Z,83.60
2019-03-30T02:57:54.691Z,83.90
2019-03-30T03:00:23.264Z,83.90
2019-03-30T03:02:51.725Z,83.80
2019-03-30T03:05:20.550Z,84.10
2019-03-30T03:07:49.069Z,84.20
2019-03-30T03:10:17.679Z,83.10
2019-03-30T03:12:46.206Z,83.00
2019-03-30T03:15:14.854Z,84.00
2019-03-30T03:17:43.340Z,84.80
2019-03-30T03:20:12.133Z,85.40
2019-03-30T03:22:40.580Z,85.00
2019-03-30T03:25:09.199Z,83.30
2019-03-30T03:27:37.646Z,83.00
2019-03-30T03:30:07.332Z,81.80
2019-03-30T03:32:35.903Z,81.50
2019-03-30T03:35:04.952Z,81.10
2019-03-30T03:37:44.876Z,81.00
2019-03-30T03:40:05.143Z,81.90
2019-03-30T03:42:33.669Z,82.30
2019-03-30T03:45:02.158Z,82.00
2019-03-30T03:47:30.660Z,83.00
2019-03-30T03:49:59.104Z,83.40
2019-03-30T03:52:27.636Z,83.50
2019-03-30T03:54:56.596Z,84.20
2019-03-30T03:57:27.788Z,84.70
2019-03-30T03:59:58.876Z,85.10
2019-03-30T04:02:30.408Z,85.50
2019-03-30T04:05:01.197Z,85.60
2019-03-30T04:07:32.817Z,85.20
2019-03-30T04:10:02.872Z,85.80
2019-03-30T04:12:34.406Z,86.30
2019-03-30T04:15:05.538Z,86.10
2019-03-30T04:17:33.975Z,86.50
2019-03-30T04:20:02.536Z,86.90
2019-03-30T04:22:30.984Z,87.00
2019-03-30T04:24:59.443Z,87.10
2019-03-30T04:27:27.969Z,87.30
2019-03-30T04:29:56.430Z,86.00
2019-03-30T04:32:24.950Z,85.50
2019-03-30T04:34:53.519Z,85.90
2019-03-30T04:37:22.043Z,84.30
2019-03-30T04:39:50.492Z,85.50
2019-03-30T04:42:18.991Z,86.20
2019-03-30T04:44:47.524Z,83.60
2019-03-30T04:47:16.044Z,85.60
2019-03-30T04:49:44.531Z,84.40
2019-03-30T04:52:12.975Z,85.20
2019-03-30T04:54:41.435Z,85.30
2019-03-30T04:57:09.919Z,84.50
2019-03-30T04:59:38.359Z,85.30
2019-03-30T05:02:06.814Z,85.50
2019-03-30T05:04:35.275Z,85.90
2019-03-30T05:07:03.729Z,85.70
2019-03-30T05:09:32.231Z,85.30
2019-03-30T05:12:00.705Z,85.60
2019-03-30T05:14:29.179Z,86.00
2019-03-30T05:16:57.620Z,86.30
2019-03-30T05:19:26.108Z,85.80
2019-03-30T05:21:54.592Z,85.20
2019-03-30T05:24:23.045Z,85.10
2019-03-30T05:26:51.503Z,85.40
2019-03-30T05:29:19.941Z,84.30
2019-03-30T05:31:48.471Z,84.70
2019-03-30T05:34:16.932Z,85.20
2019-03-30T05:36:45.382Z,85.30
2019-03-30T05:39:13.869Z,85.20
2019-03-30T05:41:42.317Z,85.50
2019-03-30T05:44:10.756Z,87.20
2019-03-30T05:46:39.214Z,86.60
2019-03-30T05:49:07.665Z,87.60
2019-03-30T05:51:36.148Z,85.80
2019-03-30T05:54:04.605Z,85.20
2019-03-30T05:56:33.116Z,84.70
2019-03-30T05:59:01.592Z,85.40
2019-03-30T06:01:30.037Z,86.20
2019-03-30T06:03:58.591Z,87.10
2019-03-30T06:06:27.034Z,86.40
2019-03-30T06:08:55.477Z,86.40
2019-03-30T06:11:23.933Z,85.70
2019-03-30T06:13:52.379Z,85.60
2019-03-30T06:16:20.836Z,85.20
2019-03-30T06:18:49.275Z,85.00
2019-03-30T06:21:17.741Z,84.30
2019-03-30T06:23:48.635Z,83.70
2019-03-30T06:26:16.421Z,83.60
2019-03-30T06:28:44.909Z,82.50
2019-03-30T06:31:13.349Z,82.10
2019-03-30T06:33:41.797Z,81.90
2019-03-30T06:36:10.252Z,81.30
2019-03-30T06:38:38.705Z,81.80
2019-03-30T06:41:07.147Z,80.10
2019-03-30T06:43:35.610Z,79.40
2019-03-30T06:46:04.066Z,79.20
2019-03-30T06:48:35.851Z,78.10
2019-03-30T06:51:02.777Z,78.40
2019-03-30T06:53:32.125Z,78.30
2019-03-30T06:56:00.584Z,79.70
2019-03-30T06:58:30.755Z,82.10
2019-03-30T07:00:59.394Z,76.80
2019-03-30T07:03:27.842Z,76.80
2019-03-30T07:05:57.935Z,75.90
2019-03-30T07:08:27.429Z,75.50
2019-03-30T07:11:20.230Z,74.90
2019-03-30T07:13:38.103Z,74.60
2019-03-30T07:16:06.635Z,74.10
2019-03-30T07:18:36.536Z,73.80
2019-03-30T07:21:05.255Z,74.40
2019-03-30T07:23:33.699Z,73.40
2019-03-30T07:26:02.154Z,72.90
2019-03-30T07:28:30.603Z,72.70
2019-03-30T07:30:59.067Z,72.30
2019-03-30T07:33:27.509Z,72.10
2019-03-30T07:35:55.963Z,71.10
2019-03-30T07:38:24.409Z,70.50
2019-03-30T07:40:52.863Z,70.30
2019-03-30T07:43:21.334Z,70.00
2019-03-30T07:45:49.847Z,69.60
2019-03-30T07:48:18.304Z,69.30
2019-03-30T07:50:47.206Z,69.20
2019-03-30T07:53:26.386Z,68.50
2019-03-30T07:55:45.908Z,68.20
2019-03-30T07:58:14.367Z,67.50
2019-03-30T08:00:42.905Z,67.30
2019-03-30T08:03:11.461Z,67.40
2019-03-30T08:05:39.989Z,67.20
2019-03-30T08:08:08.453Z,67.20
2019-03-30T08:10:36.908Z,67.00
2019-03-30T08:13:05.508Z,66.40
2019-03-30T08:15:33.948Z,66.70
2019-03-30T08:18:02.396Z,66.70
2019-03-30T08:20:30.851Z,66.70
2019-03-30T08:22:59.301Z,66.90
2019-03-30T08:25:27.873Z,67.20
2019-03-30T08:27:56.417Z,66.40
2019-03-30T08:30:24.924Z,66.10
2019-03-30T08:32:53.380Z,65.50
2019-03-30T08:35:21.820Z,65.60
2019-03-30T08:37:50.264Z,65.40
2019-03-30T08:40:18.728Z,65.40
2019-03-30T08:42:47.175Z,65.50
2019-03-30T08:45:15.640Z,64.90
2019-03-30T08:47:44.095Z,64.70
2019-03-30T08:50:13.419Z,65.10
2019-03-30T08:52:41.968Z,64.20
2019-03-30T08:55:10.594Z,63.90
2019-03-30T08:57:39.046Z,64.10
2019-03-30T09:00:08.644Z,64.20
2019-03-30T09:02:37.102Z,64.30
2019-03-30T09:05:07.984Z,63.60
2019-03-30T09:07:36.515Z,63.10
2019-03-30T09:10:07.564Z,62.80
2019-03-30T09:12:38.859Z,62.50
2019-03-30T09:15:08.246Z,62.00
2019-03-30T09:17:37.421Z,61.80
2019-03-30T09:20:07.612Z,61.70
2019-03-30T09:22:36.225Z,61.20
2019-03-30T09:25:05.691Z,60.90
2019-03-30T09:27:34.203Z,60.70
2019-03-30T09:30:02.675Z,60.50
2019-03-30T09:32:31.119Z,62.20
2019-03-30T09:34:59.579Z,60.10
2019-03-30T09:37:28.043Z,60.00
2019-03-30T09:39:56.533Z,59.60
2019-03-30T09:42:25.053Z,59.00
2019-03-30T09:44:53.514Z,58.40
2019-03-30T09:47:21.964Z,58.60
2019-03-30T09:49:50.428Z,57.10
2019-03-30T09:52:18.900Z,57.90
2019-03-30T09:54:47.420Z,55.30
2019-03-30T09:57:15.873Z,54.40
2019-03-30T09:59:44.336Z,54.60
2019-03-30T10:02:12.807Z,55.10
2019-03-30T10:04:41.328Z,55.50
2019-03-30T10:07:09.828Z,54.50
2019-03-30T10:09:38.323Z,54.30
2019-03-30T10:12:06.960Z,52.70
2019-03-30T10:14:35.416Z,51.70
2019-03-30T10:17:03.866Z,52.70
2019-03-30T10:19:32.319Z,52.60
2019-03-30T10:22:00.784Z,51.30
2019-03-30T10:24:38.040Z,50.70
2019-03-30T10:26:59.436Z,45.80
2019-03-30T10:29:27.907Z,46.40
2019-03-30T10:31:59.686Z,46.90
2019-03-30T10:34:26.643Z,42.10
2019-03-30T10:36:55.172Z,34.80
2019-03-30T10:39:23.704Z,28.50
2019-03-30T10:41:52.176Z,26.40
2019-03-30T10:44:20.700Z,25.50
2019-03-30T10:46:49.147Z,24.70
2019-03-30T10:49:17.698Z,23.70
2019-03-30T10:51:46.148Z,23.80
2019-03-30T10:54:14.607Z,22.30
2019-03-30T10:56:43.097Z,23.30
2019-03-30T10:59:11.561Z,22.40
2019-03-30T11:01:40.027Z,21.30
2019-03-30T11:04:12.482Z,22.80
2019-03-30T11:06:40.951Z,23.50
2019-03-30T11:09:09.404Z,22.10
2019-03-30T11:11:40.632Z,22.20
2019-03-30T11:14:09.088Z,21.80
2019-03-30T11:16:49.682Z,22.80
2019-03-30T11:19:18.230Z,21.80
2019-03-30T11:21:46.757Z,20.70
2019-03-30T11:24:15.284Z,20.80
2019-03-30T11:26:43.739Z,20.70
2019-03-30T11:29:12.275Z,20.00
2019-03-30T11:31:41.295Z,19.20
2019-03-30T11:34:09.751Z,19.80
2019-03-30T11:36:38.212Z,20.40
2019-03-30T11:39:06.841Z,22.40
2019-03-30T11:41:35.379Z,21.60
2019-03-30T11:44:03.901Z,20.80
2019-03-30T11:46:32.383Z,21.20
2019-03-30T11:49:00.903Z,22.00
2019-03-30T11:51:29.368Z,21.80
2019-03-30T11:53:57.827Z,20.30
2019-03-30T11:56:26.284Z,20.70
2019-03-30T11:58:54.816Z,19.90
2019-03-30T12:01:23.274Z,20.40
2019-03-30T12:03:51.744Z,20.20
2019-03-30T12:06:20.192Z,19.40
2019-03-30T12:08:48.673Z,19.20
2019-03-30T12:11:17.140Z,19.70
2019-03-30T12:13:45.618Z,19.20
2019-03-30T12:16:14.068Z,19.00
2019-03-30T12:18:42.531Z,19.10
2019-03-30T12:21:10.984Z,19.00
2019-03-30T12:26:35.913Z,18.70
2019-03-30T12:29:04.372Z,18.90
2019-03-30T12:31:32.836Z,19.20
2019-03-30T12:34:01.288Z,19.30
2019-03-30T12:36:29.756Z,18.40
2019-03-30T12:38:58.209Z,18.90
2019-03-30T12:41:26.690Z,18.50
2019-03-30T12:43:55.164Z,18.60
2019-03-30T12:46:23.659Z,17.00
2019-03-30T12:48:52.116Z,15.90
2019-03-30T12:51:20.568Z,16.80
2019-03-30T12:53:50.339Z,16.50
2019-03-30T12:56:19.252Z,16.50
2019-03-30T12:58:47.768Z,17.10
2019-03-30T13:01:16.324Z,16.50
2019-03-30T13:03:44.847Z,16.10
2019-03-30T13:06:13.364Z,15.20
2019-03-30T13:08:41.832Z,16.10
2019-03-30T13:11:10.280Z,17.10
2019-03-30T13:13:38.792Z,16.30
2019-03-30T13:16:07.308Z,16.30
2019-03-30T13:18:35.755Z,17.20
2019-03-30T13:21:04.215Z,17.40
2019-03-30T13:23:32.671Z,17.30
2019-03-30T13:26:03.980Z,18.00
2019-03-30T13:28:31.326Z,17.10
2019-03-30T13:30:59.787Z,17.70
2019-03-30T13:33:28.243Z,17.40
2019-03-30T13:35:56.806Z,16.90
2019-03-30T13:38:25.957Z,16.30
2019-03-30T13:40:54.792Z,16.10
2019-03-30T13:43:23.252Z,16.40
2019-03-30T13:45:51.771Z,17.80
2019-03-30T13:48:20.234Z,17.90
2019-03-30T13:50:48.679Z,17.50
2019-03-30T13:53:17.151Z,17.90
2019-03-30T13:55:45.614Z,17.60
2019-03-30T13:58:14.079Z,17.40
2019-03-30T14:00:42.530Z,17.50
2019-03-30T14:03:10.986Z,18.70
2019-03-30T14:05:39.527Z,18.70
2019-03-30T14:08:07.981Z,17.70
2019-03-30T14:10:38.971Z,17.00
2019-03-30T14:13:06.621Z,18.30
2019-03-30T14:15:35.103Z,18.70
2019-03-30T14:18:03.565Z,17.70
2019-03-30T14:20:32.028Z,18.20
2019-03-30T14:23:00.521Z,17.90
2019-03-30T14:25:28.979Z,19.00
2019-03-30T14:27:57.451Z,18.50
2019-03-30T14:30:25.903Z,17.60
2019-03-30T14:32:54.369Z,17.70
2019-03-30T14:35:22.820Z,18.00
2019-03-30T14:37:51.277Z,18.50
2019-03-30T14:40:19.752Z,18.30
2019-03-30T14:42:48.311Z,19.30
2019-03-30T14:45:16.828Z,19.60
2019-03-30T14:47:45.288Z,19.60
2019-03-30T14:50:14.196Z,18.70
2019-03-30T14:52:42.636Z,19.50
2019-03-30T14:55:11.168Z,21.20
2019-03-30T14:57:39.624Z,21.30
2019-03-30T15:00:10.289Z,20.70
2019-03-30T15:02:38.754Z,20.30
2019-03-30T15:05:07.956Z,19.90
2019-03-30T15:07:36.433Z,20.40
2019-03-30T15:10:10.377Z,20.30
2019-03-30T15:12:39.277Z,20.30
2019-03-30T15:15:09.943Z,20.50
2019-03-30T15:17:40.671Z,20.40
2019-03-30T15:20:10.253Z,20.20
2019-03-30T15:22:39.003Z,20.30
2019-03-30T15:25:09.109Z,20.20
2019-03-30T15:27:37.568Z,19.50
2019-03-30T15:30:08.061Z,20.20
2019-03-30T15:32:36.509Z,19.70
2019-03-30T15:35:06.913Z,19.30
2019-03-30T15:37:35.444Z,19.70
2019-03-30T15:40:05.709Z,19.10
2019-03-30T15:42:34.177Z,19.50
2019-03-30T15:45:02.642Z,19.20
2019-03-30T15:47:31.126Z,19.10
2019-03-30T15:49:59.569Z,19.70
2019-03-30T15:52:28.033Z,20.90
2019-03-30T15:54:56.569Z,20.00
2019-03-30T15:57:25.500Z,20.60
2019-03-30T15:59:54.342Z,20.80
2019-03-30T16:02:22.796Z,20.60
2019-03-30T16:04:51.249Z,20.60
2019-03-30T16:07:19.704Z,21.00
2019-03-30T16:09:48.170Z,19.60
2019-03-30T16:12:16.620Z,20.00
2019-03-30T16:14:45.091Z,20.50
2019-03-30T16:17:14.969Z,20.40
2019-03-30T16:19:43.772Z,20.80
2019-03-30T16:22:12.232Z,23.20
2019-03-30T16:24:40.698Z,23.50
2019-03-30T16:27:09.244Z,24.30
2019-03-30T16:29:37.704Z,23.40
2019-03-30T16:32:06.176Z,24.60
2019-03-30T16:34:35.004Z,24.30
2019-03-30T16:37:03.465Z,24.40
2019-03-30T16:39:34.689Z,24.50
2019-03-30T16:42:02.122Z,25.60
2019-03-30T16:44:30.631Z,25.80
2019-03-30T16:46:59.100Z,25.50
2019-03-30T16:49:27.554Z,25.80
2019-03-30T16:51:55.996Z,25.40
2019-03-30T16:54:24.748Z,25.60
2019-03-30T16:56:53.276Z,25.90
2019-03-30T16:59:21.742Z,26.10
2019-03-30T17:01:50.185Z,26.40
2019-03-30T17:04:18.641Z,26.30
2019-03-30T17:06:47.121Z,26.50
2019-03-30T17:09:15.580Z,26.60
2019-03-30T17:11:44.042Z,26.60
2019-03-30T17:14:12.483Z,26.70
2019-03-30T17:16:40.971Z,27.10
2019-03-30T17:19:09.443Z,27.80
2019-03-30T17:21:37.930Z,28.80
2019-03-30T17:24:06.447Z,30.10
2019-03-30T17:26:34.967Z,31.40
2019-03-30T17:29:03.416Z,32.80
2019-03-30T17:31:31.880Z,33.70
2019-03-30T17:34:00.383Z,34.00
2019-03-30T17:36:28.868Z,34.00
2019-03-30T17:38:57.323Z,34.70
2019-03-30T17:41:25.842Z,35.20
2019-03-30T17:43:54.316Z,35.30
2019-03-30T17:46:22.770Z,35.10
2019-03-30T17:48:51.332Z,35.70
2019-03-30T17:51:19.803Z,36.30
2019-03-30T17:53:48.316Z,36.40
2019-03-30T17:56:16.780Z,36.90
2019-03-30T17:58:45.237Z,37.10
2019-03-30T18:01:15.741Z,37.80
2019-03-30T18:03:43.864Z,38.00
2019-03-30T18:06:12.363Z,38.60
2019-03-30T18:08:40.842Z,38.60
2019-03-30T18:11:09.781Z,38.70
2019-03-30T18:13:38.272Z,39.00
2019-03-30T18:16:06.720Z,39.50
2019-03-30T18:18:35.172Z,40.00
2019-03-30T18:21:03.646Z,40.50
2019-03-30T18:23:32.112Z,40.80
2019-03-30T18:26:00.567Z,41.00
2019-03-30T18:28:29.028Z,40.90
2019-03-30T18:30:57.578Z,41.40
2019-03-30T18:33:26.864Z,41.60
2019-03-30T18:35:55.472Z,41.90
2019-03-30T18:38:24.300Z,42.00
2019-03-30T18:40:52.763Z,42.00
2019-03-30T18:43:21.220Z,42.30
2019-03-30T18:45:49.688Z,42.60
2019-03-30T18:48:19.096Z,42.70
2019-03-30T18:50:47.722Z,43.50
2019-03-30T18:53:17.031Z,43.20
2019-03-30T18:55:45.559Z,43.90
2019-03-30T18:58:14.169Z,44.80
2019-03-30T19:00:42.621Z,46.00
2019-03-30T19:03:11.086Z,46.70
2019-03-30T19:05:39.535Z,46.70
2019-03-30T19:08:07.997Z,47.20
2019-03-30T19:10:36.469Z,47.60
2019-03-30T19:13:04.943Z,48.00
2019-03-30T19:15:33.403Z,48.20
2019-03-30T19:18:01.886Z,48.60
2019-03-30T19:20:30.409Z,49.10
2019-03-30T19:22:58.892Z,49.40
2019-03-30T19:25:29.707Z,49.90
2019-03-30T19:27:57.982Z,50.50
2019-03-30T19:30:27.190Z,50.60
2019-03-30T19:32:55.938Z,50.80
2019-03-30T19:35:24.445Z,51.60
2019-03-30T19:37:52.912Z,50.90
2019-03-30T19:40:21.395Z,51.00
2019-03-30T19:42:49.862Z,51.30
2019-03-30T19:45:18.327Z,51.60
2019-03-30T19:47:46.767Z,51.80
2019-03-30T19:50:15.314Z,52.20
2019-03-30T19:52:43.775Z,52.20
2019-03-30T19:55:12.263Z,52.40
2019-03-30T19:57:40.778Z,52.50
2019-03-30T20:00:13.446Z,52.50
2019-03-30T20:02:41.959Z,53.00
2019-03-30T20:05:12.035Z,53.20
2019-03-30T20:07:40.489Z,53.70
2019-03-30T20:10:09.099Z,54.20
2019-03-30T20:12:38.328Z,54.70
2019-03-30T20:15:08.442Z,54.90
2019-03-30T20:17:36.969Z,54.80
2019-03-30T20:20:05.991Z,55.40
2019-03-30T20:22:34.459Z,55.40
2019-03-30T20:25:02.903Z,56.30
2019-03-30T20:27:31.363Z,55.80
2019-03-30T20:29:59.838Z,55.90
2019-03-30T20:32:28.327Z,56.10
2019-03-30T20:34:56.799Z,55.80
2019-03-30T20:37:25.265Z,55.50
2019-03-30T20:39:53.710Z,55.60
2019-03-30T20:42:22.181Z,56.10
2019-03-30T20:44:50.643Z,56.80
2019-03-30T20:47:19.099Z,57.20
2019-03-30T20:49:47.570Z,57.50
2019-03-30T20:52:16.034Z,58.10
2019-03-30T20:54:44.567Z,58.70
2019-03-30T20:57:13.095Z,58.80
2019-03-30T20:59:41.581Z,59.20
2019-03-30T21:02:10.123Z,59.40
2019-03-30T21:04:38.690Z,60.30
2019-03-30T21:07:07.140Z,59.40
2019-03-30T21:09:35.624Z,59.30
2019-03-30T21:12:04.093Z,59.80
2019-03-30T21:14:32.609Z,60.20
2019-03-30T21:17:01.072Z,60.30
2019-03-30T21:19:29.520Z,60.20
2019-03-30T21:21:57.989Z,60.00
2019-03-30T21:24:26.460Z,59.80
2019-03-30T21:26:54.975Z,60.10
2019-03-30T21:29:23.448Z,60.80
2019-03-30T21:31:51.909Z,60.30
2019-03-30T21:34:20.372Z,60.40
2019-03-30T21:36:48.832Z,60.30
2019-03-30T21:39:17.292Z,60.30
2019-03-30T21:41:45.739Z,60.60
2019-03-30T21:44:21.805Z,60.90
2019-03-30T21:46:44.423Z,60.80
2019-03-30T21:49:12.885Z,60.90
2019-03-30T21:51:41.408Z,60.90
2019-03-30T21:54:09.861Z,61.20
2019-03-30T21:56:38.375Z,61.40
2019-03-30T21:59:06.876Z,62.10
2019-03-30T22:01:35.327Z,62.40
2019-03-30T22:04:03.795Z,62.80
2019-03-30T22:06:32.323Z,63.30
2019-03-30T22:09:00.920Z,63.10
2019-03-30T22:11:33.763Z,62.80
2019-03-30T22:14:02.202Z,63.10
2019-03-30T22:16:30.675Z,63.30
2019-03-30T22:19:01.972Z,63.80
2019-03-30T22:21:29.351Z,64.40
2019-03-30T22:23:57.810Z,64.70
2019-03-30T22:26:27.900Z,65.10
2019-03-30T22:28:56.372Z,65.40
2019-03-30T22:31:24.928Z,66.00
2019-03-30T22:33:53.372Z,66.10
2019-03-30T22:36:21.828Z,65.30
2019-03-30T22:38:50.267Z,65.50
2019-03-30T22:41:18.832Z,65.70
2019-03-30T22:43:47.353Z,65.90
2019-03-30T22:46:15.816Z,65.90
2019-03-30T22:48:46.112Z,65.60
2019-03-30T22:51:14.618Z,64.50
2019-03-30T22:53:43.106Z,63.70
2019-03-30T22:56:11.553Z,63.10
2019-03-30T22:58:40.003Z,62.80
2019-03-30T23:01:13.096Z,63.40
2019-03-30T23:03:41.552Z,64.60
2019-03-30T23:06:10.001Z,65.40
2019-03-30T23:08:38.452Z,65.60
2019-03-30T23:11:06.905Z,65.90
2019-03-30T23:13:35.364Z,66.20
2019-03-30T23:16:03.803Z,66.90
2019-03-30T23:18:32.271Z,67.10
2019-03-30T23:21:00.821Z,67.60
2019-03-30T23:23:29.264Z,67.50
2019-03-30T23:25:57.711Z,67.20
2019-03-30T23:28:26.166Z,67.30
2019-03-30T23:30:54.953Z,65.90
2019-03-30T23:33:23.551Z,65.40
2019-03-30T23:35:52.003Z,65.30
2019-03-30T23:38:20.447Z,66.90
2019-03-30T23:40:48.907Z,66.70
2019-03-30T23:43:17.433Z,67.20
2019-03-30T23:45:45.883Z,67.90
2019-03-30T23:48:14.349Z,67.90
2019-03-30T23:50:42.861Z,68.20
2019-03-30T23:53:11.327Z,68.10
2019-03-30T23:55:39.838Z,67.90
2019-03-30T23:58:08.297Z,67.10
